createdAt,value
2019-02-12T00:00:12.222Z,100316.36
2019-02-12T00:02:40.603Z,100319.95
2019-02-12T00:05:08.991Z,100336.67
2019-02-12T00:07:37.385Z,100337.98
2019-02-12T00:10:06.877Z,100344.59
2019-02-12T00:12:35.236Z,100344.18
2019-02-12T00:15:04.634Z,100352.11
2019-02-12T00:17:33.024Z,100357.02
2019-02-12T00:20:01.418Z,100361.92
2019-02-12T00:22:29.855Z,100365.47
2019-02-12T00:24:58.215Z,100367.20
2019-02-12T00:27:26.599Z,100374.71
2019-02-12T00:29:54.978Z,100388.34
2019-02-12T00:32:23.457Z,100388.38
2019-02-12T00:34:51.841Z,100386.60
2019-02-12T00:37:20.352Z,100385.28
2019-02-12T00:39:48.706Z,100382.71
2019-02-12T00:42:17.095Z,100379.13
2019-02-12T00:44:45.478Z,100381.39
2019-02-12T00:47:13.875Z,100375.23
2019-02-12T00:49:42.342Z,100387.13
2019-02-12T00:52:10.735Z,100382.78
2019-02-12T00:54:39.122Z,100383.65
2019-02-12T00:57:07.510Z,100386.34
2019-02-12T00:59:35.915Z,100389.47
2019-02-12T01:02:04.377Z,100399.09
2019-02-12T01:04:32.761Z,100400.48
2019-02-12T01:07:01.145Z,100404.45
2019-02-12T01:09:29.642Z,100409.34
2019-02-12T01:11:58.141Z,100412.90
2019-02-12T01:14:26.516Z,100412.52
2019-02-12T01:16:54.905Z,100409.80
2019-02-12T01:19:23.286Z,100413.84
2019-02-12T01:21:51.678Z,100412.52
2019-02-12T01:24:20.224Z,100413.84
2019-02-12T01:26:48.610Z,100416.93
2019-02-12T01:29:17.074Z,100414.75
2019-02-12T01:31:45.463Z,100416.06
2019-02-12T01:34:13.849Z,100423.61
2019-02-12T01:36:42.244Z,100424.55
2019-02-12T01:39:11.962Z,100422.73
2019-02-12T01:41:40.356Z,100428.51
2019-02-12T01:44:08.741Z,100425.87
2019-02-12T01:46:37.176Z,100425.00
2019-02-12T01:49:05.557Z,100418.47
2019-02-12T01:51:35.301Z,100413.19
2019-02-12T01:54:03.714Z,100411.45
2019-02-12T01:56:32.107Z,100411.45
2019-02-12T01:59:00.509Z,100400.50
2019-02-12T02:01:28.903Z,100408.43
2019-02-12T02:03:57.278Z,100412.39
2019-02-12T02:06:25.662Z,100410.28
2019-02-12T02:08:54.046Z,100411.07
2019-02-12T02:11:22.427Z,100417.75
2019-02-12T02:13:50.824Z,100418.20
2019-02-12T02:16:19.214Z,100419.97
2019-02-12T02:18:47.601Z,100412.99
2019-02-12T02:21:15.981Z,100417.41
2019-02-12T02:23:44.381Z,100420.98
2019-02-12T02:26:12.763Z,100419.66
2019-02-12T02:28:41.147Z,100422.30
2019-02-12T02:31:09.526Z,100426.72
2019-02-12T02:33:37.901Z,100424.08
2019-02-12T02:36:06.270Z,100415.77
2019-02-12T02:38:34.660Z,100426.34
2019-02-12T02:41:03.031Z,100418.94
2019-02-12T02:43:31.427Z,100412.34
2019-02-12T02:46:00.443Z,100413.20
2019-02-12T02:48:28.826Z,100420.26
2019-02-12T02:50:57.199Z,100428.64
2019-02-12T02:53:25.585Z,100424.75
2019-02-12T02:55:53.959Z,100427.88
2019-02-12T02:58:22.368Z,100436.63
2019-02-12T03:00:50.713Z,100436.70
2019-02-12T03:03:19.096Z,100431.94
2019-02-12T03:05:47.470Z,100440.28
2019-02-12T03:08:15.855Z,100446.02
2019-02-12T03:10:44.233Z,100449.11
2019-02-12T03:13:12.617Z,100448.73
2019-02-12T03:15:40.988Z,100447.41
2019-02-12T03:18:09.384Z,100454.08
2019-02-12T03:20:37.759Z,100456.72
2019-02-12T03:23:06.139Z,100458.91
2019-02-12T03:25:34.506Z,100458.42
2019-02-12T03:28:02.902Z,100462.38
2019-02-12T03:30:31.277Z,100464.12
2019-02-12T03:32:59.657Z,100463.32
2019-02-12T03:35:28.028Z,100459.36
2019-02-12T03:37:56.409Z,100458.91
2019-02-12T03:40:24.791Z,100461.55
2019-02-12T03:42:53.171Z,100456.65
2019-02-12T03:45:21.542Z,100459.81
2019-02-12T03:47:49.920Z,100467.28
2019-02-12T03:50:18.302Z,100468.18
2019-02-12T03:52:46.681Z,100470.38
2019-02-12T03:55:15.125Z,100469.98
2019-02-12T03:57:43.572Z,100466.86
2019-02-12T04:00:17.993Z,100474.41
2019-02-12T04:03:00.350Z,100468.25
2019-02-12T04:05:28.722Z,100481.94
2019-02-12T04:07:57.099Z,100489.00
2019-02-12T04:10:25.720Z,100491.22
2019-02-12T04:12:54.098Z,100480.27
2019-02-12T04:15:22.534Z,100484.23
2019-02-12T04:17:50.908Z,100489.13
2019-02-12T04:20:19.285Z,100484.30
2019-02-12T04:22:47.662Z,100479.89
2019-02-12T04:25:16.043Z,100478.57
2019-02-12T04:27:44.412Z,100472.35
2019-02-12T04:30:12.864Z,100474.61
2019-02-12T04:32:41.235Z,100484.30
2019-02-12T04:35:09.614Z,100478.09
2019-02-12T04:37:37.987Z,100470.23
2019-02-12T04:40:09.515Z,100474.68
2019-02-12T04:42:38.124Z,100479.96
2019-02-12T04:45:09.581Z,100480.80
2019-02-12T04:47:37.974Z,100478.64
2019-02-12T04:50:09.761Z,100474.68
2019-02-12T04:52:38.147Z,100471.55
2019-02-12T04:55:08.395Z,100461.52
2019-02-12T04:57:36.761Z,100471.63
2019-02-12T05:00:10.926Z,100472.56
2019-02-12T05:02:39.314Z,100473.02
2019-02-12T05:05:09.835Z,100478.67
2019-02-12T05:07:38.199Z,100487.91
2019-02-12T05:10:18.557Z,100480.94
2019-02-12T05:12:46.933Z,100485.77
2019-02-12T05:15:15.306Z,100482.32
2019-02-12T05:17:43.678Z,100486.66
2019-02-12T05:20:14.650Z,100484.51
2019-02-12T05:22:43.902Z,100492.88
2019-02-12T05:25:13.124Z,100495.52
2019-02-12T05:27:41.533Z,100491.18
2019-02-12T05:30:14.318Z,100497.71
2019-02-12T05:32:42.708Z,100500.35
2019-02-12T05:35:11.074Z,100493.33
2019-02-12T05:37:39.466Z,100492.50
2019-02-12T05:40:09.968Z,100496.45
2019-02-12T05:42:38.342Z,100500.42
2019-02-12T05:45:12.039Z,100500.45
2019-02-12T05:47:40.419Z,100502.19
2019-02-12T05:50:11.426Z,100505.73
2019-02-12T05:52:39.796Z,100504.41
2019-02-12T05:55:08.324Z,100514.07
2019-02-12T05:57:36.697Z,100504.90
2019-02-12T06:00:10.911Z,100500.52
2019-02-12T06:02:39.285Z,100502.71
2019-02-12T06:05:07.832Z,100510.17
2019-02-12T06:07:36.270Z,100510.56
2019-02-12T06:10:07.375Z,100509.77
2019-02-12T06:12:35.748Z,100505.80
2019-02-12T06:15:05.764Z,100505.42
2019-02-12T06:17:34.129Z,100510.70
2019-02-12T06:20:02.505Z,100505.00
2019-02-12T06:22:32.013Z,100500.66
2019-02-12T06:25:00.640Z,100503.69
2019-02-12T06:27:29.035Z,100508.51
2019-02-12T06:29:57.424Z,100505.07
2019-02-12T06:32:25.797Z,100502.43
2019-02-12T06:34:54.196Z,100504.62
2019-02-12T06:37:22.592Z,100509.45
2019-02-12T06:39:51.053Z,100516.95
2019-02-12T06:42:19.451Z,100520.08
2019-02-12T06:44:47.918Z,100528.89
2019-02-12T06:47:16.303Z,100530.70
2019-02-12T06:49:44.689Z,100529.38
2019-02-12T06:52:13.125Z,100528.95
2019-02-12T06:54:41.515Z,100532.98
2019-02-12T06:57:09.895Z,100527.26
2019-02-12T06:59:38.286Z,100532.60
2019-02-12T07:02:43.206Z,100538.33
2019-02-12T07:05:11.592Z,100544.00
2019-02-12T07:07:49.050Z,100551.59
2019-02-12T07:10:17.456Z,100556.88
2019-02-12T07:12:51.686Z,100557.78
2019-02-12T07:15:23.106Z,100556.14
2019-02-12T07:17:59.935Z,100558.78
2019-02-12T07:20:31.460Z,100558.84
2019-02-12T07:23:05.734Z,100565.02
2019-02-12T07:25:48.915Z,100565.51
2019-02-12T07:28:38.889Z,100564.19
2019-02-12T07:31:16.287Z,100574.33
2019-02-12T07:34:04.675Z,100586.69
2019-02-12T07:37:09.329Z,100586.33
2019-02-12T07:39:40.747Z,100588.16
2019-02-12T07:42:21.199Z,100598.75
2019-02-12T07:45:08.897Z,100602.30
2019-02-12T07:48:07.892Z,100604.48
2019-02-12T07:50:51.330Z,100610.59
2019-02-12T07:53:31.003Z,100607.98
2019-02-12T07:56:04.924Z,100612.40
2019-02-12T07:58:58.899Z,100618.12
2019-02-12T08:01:51.714Z,100619.86
2019-02-12T08:04:54.722Z,100633.96
2019-02-12T08:07:45.775Z,100633.32
2019-02-12T08:10:36.686Z,100642.20
2019-02-12T08:13:13.651Z,100648.02
2019-02-12T08:15:54.018Z,100649.89
2019-02-12T08:18:31.287Z,100648.20
2019-02-12T08:21:11.269Z,100652.30
2019-02-12T08:24:16.080Z,100664.23
2019-02-12T08:26:53.189Z,100662.48
2019-02-12T08:29:39.437Z,100662.48
2019-02-12T08:32:19.419Z,100671.78
2019-02-12T08:35:08.822Z,100674.36
2019-02-12T08:37:52.274Z,100671.72
2019-02-12T08:40:29.755Z,100668.64
2019-02-12T08:43:01.179Z,100669.08
2019-02-12T08:45:41.754Z,100667.31
2019-02-12T08:48:34.176Z,100675.62
2019-02-12T08:51:14.764Z,100680.89
2019-02-12T08:54:19.481Z,100685.73
2019-02-12T08:57:09.335Z,100690.05
2019-02-12T09:00:03.631Z,100685.58
2019-02-12T09:02:57.912Z,100687.34
2019-02-12T09:05:32.060Z,100682.52
2019-02-12T09:08:03.499Z,100685.60
2019-02-12T09:10:37.804Z,100689.05
2019-02-12T09:13:21.270Z,100695.20
2019-02-12T09:16:09.693Z,100691.17
2019-02-12T09:18:47.128Z,100693.34
2019-02-12T09:21:36.887Z,100696.36
2019-02-12T09:24:20.207Z,100706.41
2019-02-12T09:26:54.419Z,100709.11
2019-02-12T09:29:42.990Z,100705.48
2019-02-12T09:32:38.092Z,100705.90
2019-02-12T09:35:12.663Z,100708.48
2019-02-12T09:37:59.247Z,100711.98
2019-02-12T09:40:39.775Z,100713.70
2019-02-12T09:43:20.303Z,100718.46
2019-02-12T09:46:00.283Z,100719.33
2019-02-12T09:48:43.521Z,100718.84
2019-02-12T09:51:14.982Z,100726.67
2019-02-12T09:53:55.058Z,100724.42
2019-02-12T09:56:26.486Z,100723.49
2019-02-12T09:59:00.551Z,100719.95
2019-02-12T10:01:56.217Z,100726.05
2019-02-12T10:04:45.627Z,100724.17
2019-02-12T10:07:19.689Z,100720.22
2019-02-12T10:09:57.276Z,100727.69
2019-02-12T10:12:40.973Z,100725.92
2019-02-12T10:15:30.007Z,100730.20
2019-02-12T10:18:10.599Z,100731.94
2019-02-12T10:20:50.999Z,100732.78
2019-02-12T10:23:39.043Z,100731.87
2019-02-12T10:26:10.760Z,100737.09
2019-02-12T10:29:14.211Z,100739.23
2019-02-12T10:31:41.734Z,100730.31
2019-02-12T10:34:10.700Z,100730.31
2019-02-12T10:36:39.250Z,100721.87
2019-02-12T10:39:09.265Z,100729.28
2019-02-12T10:41:37.689Z,100730.92
2019-02-12T10:44:06.032Z,100728.64
2019-02-12T10:46:34.411Z,100736.89
2019-02-12T10:49:02.796Z,100739.89
2019-02-12T10:51:31.190Z,100740.75
2019-02-12T10:53:59.581Z,100744.66
2019-02-12T10:56:27.959Z,100739.70
2019-02-12T10:58:56.351Z,100735.67
2019-02-12T11:01:24.726Z,100739.53
2019-02-12T11:03:53.117Z,100736.31
2019-02-12T11:06:21.493Z,100733.93
2019-02-12T11:08:49.882Z,100731.22
2019-02-12T11:11:18.252Z,100734.22
2019-02-12T11:13:46.635Z,100740.76
2019-02-12T11:16:15.010Z,100745.91
2019-02-12T11:18:43.400Z,100746.72
2019-02-12T11:21:12.342Z,100741.81
2019-02-12T11:23:40.836Z,100739.08
2019-02-12T11:26:09.213Z,100733.80
2019-02-12T11:28:37.597Z,100727.12
2019-02-12T11:31:06.141Z,100735.41
2019-02-12T11:33:34.647Z,100737.53
2019-02-12T11:36:03.025Z,100737.84
2019-02-12T11:38:31.407Z,100737.27
2019-02-12T11:40:59.792Z,100739.39
2019-02-12T11:43:28.186Z,100733.58
2019-02-12T11:45:56.562Z,100733.45
2019-02-12T11:48:24.941Z,100738.22
2019-02-12T11:50:53.317Z,100734.19
2019-02-12T11:53:21.698Z,100731.96
2019-02-12T11:55:50.073Z,100732.73
2019-02-12T11:58:18.477Z,100729.11
2019-02-12T12:00:48.490Z,100739.17
2019-02-12T12:03:16.872Z,100737.33
2019-02-12T12:05:45.243Z,100733.75
2019-02-12T12:08:13.631Z,100732.29
2019-02-12T12:10:42.012Z,100735.38
2019-02-12T12:13:10.406Z,100735.34
2019-02-12T12:15:38.770Z,100730.83
2019-02-12T12:18:07.391Z,100728.53
2019-02-12T12:20:35.762Z,100733.75
2019-02-12T12:23:04.986Z,100726.69
2019-02-12T12:25:33.369Z,100731.45
2019-02-12T12:28:01.758Z,100727.42
2019-02-12T12:30:30.135Z,100730.00
2019-02-12T12:32:58.545Z,100722.87
2019-02-12T12:35:26.922Z,100717.02
2019-02-12T12:37:55.305Z,100717.89
2019-02-12T12:40:23.685Z,100714.80
2019-02-12T12:42:52.074Z,100710.34
2019-02-12T12:45:20.453Z,100713.33
2019-02-12T12:47:48.838Z,100710.61
2019-02-12T12:50:17.215Z,100718.89
2019-02-12T12:52:45.600Z,100717.89
2019-02-12T12:55:13.969Z,100723.62
2019-02-12T12:57:42.440Z,100729.27
2019-02-12T13:00:13.141Z,100725.68
2019-02-12T13:02:41.585Z,100735.81
2019-02-12T13:05:11.115Z,100716.35
2019-02-12T13:07:39.601Z,100722.52
2019-02-12T13:10:10.888Z,100711.94
2019-02-12T13:12:39.262Z,100713.19
2019-02-12T13:15:10.292Z,100715.76
2019-02-12T13:17:38.666Z,100715.30
2019-02-12T13:20:10.051Z,100714.78
2019-02-12T13:22:38.419Z,100714.33
2019-02-12T13:25:08.976Z,100717.43
2019-02-12T13:27:37.391Z,100711.69
2019-02-12T13:30:09.518Z,100711.69
2019-02-12T13:32:37.885Z,100709.49
2019-02-12T13:35:07.310Z,100706.32
2019-02-12T13:37:35.677Z,100712.86
2019-02-12T13:40:05.467Z,100708.89
2019-02-12T13:42:33.832Z,100711.92
2019-02-12T13:45:02.211Z,100712.72
2019-02-12T13:47:30.583Z,100710.08
2019-02-12T13:49:59.310Z,100717.48
2019-02-12T13:52:27.724Z,100717.48
2019-02-12T13:54:56.101Z,100718.36
2019-02-12T13:57:24.746Z,100716.13
2019-02-12T13:59:53.120Z,100722.28
2019-02-12T14:02:21.498Z,100722.67
2019-02-12T14:04:49.875Z,100723.54
2019-02-12T14:07:18.251Z,100733.25
2019-02-12T14:09:46.636Z,100734.12
2019-02-12T14:12:15.861Z,100736.28
2019-02-12T14:14:44.267Z,100741.13
2019-02-12T14:17:12.639Z,100738.48
2019-02-12T14:19:41.018Z,100732.80
2019-02-12T14:22:09.395Z,100733.63
2019-02-12T14:24:38.156Z,100736.28
2019-02-12T14:27:06.513Z,100734.12
2019-02-12T14:29:35.950Z,100729.73
2019-02-12T14:32:04.319Z,100736.77
2019-02-12T14:34:32.752Z,100735.37
2019-02-12T14:37:01.121Z,100739.34
2019-02-12T14:39:29.505Z,100739.27
2019-02-12T14:41:57.875Z,100739.73
2019-02-12T14:44:26.261Z,100747.55
2019-02-12T14:46:54.630Z,100740.52
2019-02-12T14:49:23.016Z,100738.82
2019-02-12T14:51:51.377Z,100739.73
2019-02-12T14:54:19.762Z,100741.99
2019-02-12T14:56:48.131Z,100743.24
2019-02-12T14:59:16.521Z,100743.24
2019-02-12T15:01:44.890Z,100739.73
2019-02-12T15:04:13.343Z,100744.64
2019-02-12T15:06:41.719Z,100746.83
2019-02-12T15:09:10.093Z,100748.16
2019-02-12T15:11:38.470Z,100738.89
2019-02-12T15:14:06.853Z,100739.80
2019-02-12T15:16:36.153Z,100741.13
2019-02-12T15:19:04.523Z,100736.70
2019-02-12T15:21:32.913Z,100738.48
2019-02-12T15:24:01.277Z,100734.05
2019-02-12T15:26:29.669Z,100729.21
2019-02-12T15:28:58.043Z,100734.92
2019-02-12T15:31:26.426Z,100737.08
2019-02-12T15:33:54.798Z,100737.08
2019-02-12T15:36:23.183Z,100741.05
2019-02-12T15:38:51.551Z,100740.22
2019-02-12T15:41:19.933Z,100741.13
2019-02-12T15:43:48.301Z,100745.51
2019-02-12T15:46:16.692Z,100746.34
2019-02-12T15:48:45.057Z,100741.05
2019-02-12T15:51:13.437Z,100742.86
2019-02-12T15:53:41.818Z,100743.31
2019-02-12T15:56:10.199Z,100744.22
2019-02-12T15:58:38.569Z,100745.55
2019-02-12T16:01:06.956Z,100742.97
2019-02-12T16:03:36.473Z,100742.97
2019-02-12T16:06:05.433Z,100740.84
2019-02-12T16:08:33.807Z,100747.98
2019-02-12T16:11:02.198Z,100742.28
2019-02-12T16:13:30.576Z,100736.98
2019-02-12T16:15:58.973Z,100742.34
2019-02-12T16:18:27.343Z,100742.77
2019-02-12T16:20:55.720Z,100736.26
2019-02-12T16:23:24.087Z,100740.23
2019-02-12T16:25:59.329Z,100739.39
2019-02-12T16:28:22.569Z,100738.97
2019-02-12T16:30:50.960Z,100735.49
2019-02-12T16:33:19.336Z,100735.42
2019-02-12T16:35:47.715Z,100738.97
2019-02-12T16:38:16.090Z,100733.75
2019-02-12T16:40:44.477Z,100735.53
2019-02-12T16:43:13.118Z,100747.05
2019-02-12T16:45:50.432Z,100750.22
2019-02-12T16:48:18.813Z,100751.16
2019-02-12T16:50:47.190Z,100751.23
2019-02-12T16:53:15.567Z,100754.78
2019-02-12T16:55:43.942Z,100765.84
2019-02-12T16:58:12.310Z,100770.27
2019-02-12T17:00:40.691Z,100764.59
2019-02-12T17:03:09.065Z,100762.41
2019-02-12T17:05:37.518Z,100767.77
2019-02-12T17:08:05.889Z,100780.56
2019-02-12T17:10:34.272Z,100775.77
2019-02-12T17:13:02.645Z,100784.16
2019-02-12T17:15:31.031Z,100786.41
2019-02-12T17:17:59.400Z,100780.70
2019-02-12T17:20:27.767Z,100785.61
2019-02-12T17:22:56.153Z,100788.33
2019-02-12T17:25:24.521Z,100800.67
2019-02-12T17:27:52.901Z,100802.52
2019-02-12T17:30:21.274Z,100800.81
2019-02-12T17:32:49.656Z,100802.66
2019-02-12T17:35:18.024Z,100804.84
2019-02-12T17:37:46.410Z,100803.11
2019-02-12T17:40:18.833Z,100807.94
2019-02-12T17:42:47.225Z,100806.20
2019-02-12T17:45:17.791Z,100817.27
2019-02-12T17:47:46.251Z,100814.69
2019-02-12T17:50:15.558Z,100812.50
2019-02-12T17:52:44.012Z,100812.11
2019-02-12T17:55:12.376Z,100809.50
2019-02-12T17:57:40.760Z,100808.66
2019-02-12T18:00:13.506Z,100820.63
2019-02-12T18:02:42.117Z,100819.69
2019-02-12T18:05:10.554Z,100813.60
2019-02-12T18:07:38.939Z,100823.80
2019-02-12T18:10:09.857Z,100824.25
2019-02-12T18:12:38.238Z,100829.98
2019-02-12T18:15:10.206Z,100823.37
2019-02-12T18:17:38.583Z,100828.28
2019-02-12T18:20:10.598Z,100828.73
2019-02-12T18:22:39.018Z,100826.56
2019-02-12T18:25:09.772Z,100822.63
2019-02-12T18:27:38.319Z,100823.13
2019-02-12T18:30:10.000Z,100826.59
2019-02-12T18:32:38.380Z,100832.76
2019-02-12T18:35:07.793Z,100824.44
2019-02-12T18:37:36.175Z,100821.86
2019-02-12T18:40:10.552Z,100822.25
2019-02-12T18:42:38.936Z,100819.54
2019-02-12T18:45:10.682Z,100818.28
2019-02-12T18:47:39.077Z,100821.38
2019-02-12T18:50:10.422Z,100818.34
2019-02-12T18:52:38.878Z,100817.02
2019-02-12T18:55:10.594Z,100814.77
2019-02-12T18:57:38.975Z,100813.94
2019-02-12T19:00:13.885Z,100810.42
2019-02-12T19:02:42.267Z,100805.58
2019-02-12T19:05:11.102Z,100810.03
2019-02-12T19:07:39.486Z,100812.70
2019-02-12T19:10:10.983Z,100805.65
2019-02-12T19:12:39.378Z,100812.25
2019-02-12T19:15:11.162Z,100806.58
2019-02-12T19:17:39.920Z,100806.58
2019-02-12T19:20:13.178Z,100807.48
2019-02-12T19:22:41.562Z,100811.88
2019-02-12T19:25:10.868Z,100811.00
2019-02-12T19:27:39.268Z,100820.31
2019-02-12T19:30:12.103Z,100817.74
2019-02-12T19:32:40.486Z,100816.00
2019-02-12T19:35:10.500Z,100813.36
2019-02-12T19:37:38.877Z,100815.16
2019-02-12T19:40:09.839Z,100813.42
2019-02-12T19:42:38.472Z,100814.36
2019-02-12T19:45:10.227Z,100817.80
2019-02-12T19:47:38.612Z,100813.91
2019-02-12T19:50:08.968Z,100810.39
2019-02-12T19:52:37.347Z,100814.36
2019-02-12T19:55:08.059Z,100823.61
2019-02-12T19:57:36.514Z,100824.52
2019-02-12T20:00:08.599Z,100820.16
2019-02-12T20:02:36.976Z,100814.42
2019-02-12T20:05:08.459Z,100820.61
2019-02-12T20:07:36.839Z,100812.69
2019-02-12T20:10:07.850Z,100814.94
2019-02-12T20:12:36.229Z,100818.84
2019-02-12T20:15:07.440Z,100820.23
2019-02-12T20:17:35.819Z,100832.12
2019-02-12T20:20:05.332Z,100831.73
2019-02-12T20:22:33.714Z,100834.83
2019-02-12T20:25:02.080Z,100830.44
2019-02-12T20:27:35.825Z,100833.09
2019-02-12T20:30:00.576Z,100833.09
2019-02-12T20:32:28.948Z,100835.73
2019-02-12T20:34:57.320Z,100836.22
2019-02-12T20:37:25.704Z,100839.76
2019-02-12T20:39:54.101Z,100846.36
2019-02-12T20:42:22.537Z,100848.17
2019-02-12T20:44:50.927Z,100842.08
2019-02-12T20:47:19.301Z,100843.79
2019-02-12T20:49:47.731Z,100848.69
2019-02-12T20:52:16.106Z,100851.39
2019-02-12T20:54:44.524Z,100853.55
2019-02-12T20:57:15.101Z,100846.56
2019-02-12T20:59:43.003Z,100841.34
2019-02-12T21:02:11.390Z,100832.15
2019-02-12T21:04:39.771Z,100838.76
2019-02-12T21:07:09.178Z,100837.50
2019-02-12T21:09:37.558Z,100840.59
2019-02-12T21:12:05.943Z,100833.18
2019-02-12T21:14:34.483Z,100828.31
2019-02-12T21:17:02.852Z,100832.34
2019-02-12T21:19:31.310Z,100835.47
2019-02-12T21:21:59.679Z,100832.02
2019-02-12T21:24:28.059Z,100831.59
2019-02-12T21:26:56.428Z,100837.36
2019-02-12T21:29:24.921Z,100827.30
2019-02-12T21:31:53.324Z,100831.72
2019-02-12T21:34:21.705Z,100832.70
2019-02-12T21:36:50.078Z,100835.86
2019-02-12T21:39:20.102Z,100833.98
2019-02-12T21:41:48.476Z,100839.42
2019-02-12T21:44:16.860Z,100847.06
2019-02-12T21:46:45.229Z,100848.45
2019-02-12T21:49:13.613Z,100851.66
2019-02-12T21:51:41.984Z,100857.39
2019-02-12T21:54:10.374Z,100864.94
2019-02-12T21:56:39.683Z,100865.39
2019-02-12T21:59:08.078Z,100867.64
2019-02-12T22:01:36.451Z,100869.86
2019-02-12T22:04:05.026Z,100878.27
2019-02-12T22:06:33.377Z,100871.19
2019-02-12T22:09:01.764Z,100862.00
2019-02-12T22:11:30.135Z,100861.19
2019-02-12T22:13:58.516Z,100871.75
2019-02-12T22:16:26.888Z,100870.44
2019-02-12T22:18:55.532Z,100883.25
2019-02-12T22:21:23.920Z,100886.34
2019-02-12T22:23:52.315Z,100890.31
2019-02-12T22:26:20.685Z,100897.39
2019-02-12T22:28:49.083Z,100896.97
2019-02-12T22:31:17.472Z,100901.80
2019-02-12T22:33:45.854Z,100900.09
2019-02-12T22:36:14.230Z,100892.62
2019-02-12T22:38:42.689Z,100888.23
2019-02-12T22:41:11.059Z,100894.39
2019-02-12T22:43:39.997Z,100898.92
2019-02-12T22:46:08.369Z,100898.92
2019-02-12T22:48:36.737Z,100905.41
2019-02-12T22:51:05.125Z,100902.38
2019-02-12T22:53:33.496Z,100904.63
2019-02-12T22:56:01.979Z,100907.30
2019-02-12T22:58:30.334Z,100912.58
2019-02-12T23:01:01.336Z,100910.42
2019-02-12T23:03:29.702Z,100917.48
2019-02-12T23:05:58.085Z,100915.28
2019-02-12T23:08:26.449Z,100909.61
2019-02-12T23:10:54.836Z,100908.30
2019-02-12T23:13:23.247Z,100901.30
2019-02-12T23:15:51.632Z,100907.91
2019-02-12T23:18:20.007Z,100900.88
2019-02-12T23:20:48.486Z,100902.64
2019-02-12T23:23:16.864Z,100897.84
2019-02-12T23:25:45.257Z,100907.93
2019-02-12T23:28:13.625Z,100909.80
2019-02-12T23:30:42.014Z,100906.73
2019-02-12T23:33:10.385Z,100913.33
2019-02-12T23:35:38.779Z,100912.48
2019-02-12T23:38:07.197Z,100923.50
2019-02-12T23:40:35.580Z,100922.63
2019-02-12T23:43:03.947Z,100910.36
2019-02-12T23:45:32.338Z,100904.20
2019-02-12T23:48:00.746Z,100904.66
2019-02-12T23:50:29.260Z,100903.39
2019-02-12T23:52:58.108Z,100903.39
2019-02-12T23:55:26.487Z,100908.67
2019-02-12T23:57:54.859Z,100899.55
